Time;durP1;ratioP1;P1;durP2;ratioP2;P2;SDS_P1;SDS_P2;PMS_P1;PMS_P2;Temp;Humidity;BMP_temperature;BMP_pressure;BME280_temperature;BME280_humidity;BME280_pressure;Samples;Min_cycle;Max_cycle;Signal;HPM_P1;HPM_P2
2022/05/17 00:00:08;;;;;;;2.92;2.60;;;;;;;21.18;47.20;99740.65;1826095;78;21263;-68
2022/05/17 00:02:37;;;;;;;2.87;2.42;;;;;;;21.18;47.18;99735.78;1793535;80;21201;-68
2022/05/17 00:05:06;;;;;;;2.92;2.58;;;;;;;21.17;47.18;99732.78;1793549;80;21029;-67
2022/05/17 00:07:32;;;;;;;2.83;2.45;;;;;;;21.16;47.18;99725.75;1793887;79;21001;-68
2022/05/17 00:09:59;;;;;;;3.42;3.10;;;;;;;21.14;47.19;99724.63;1793650;80;21044;-67
2022/05/17 00:12:25;;;;;;;3.55;2.77;;;;;;;21.13;47.19;99732.45;1793665;80;21552;-68
2022/05/17 00:14:52;;;;;;;3.58;3.02;;;;;;;21.13;47.19;99731.61;1794722;78;21123;-68
2022/05/17 00:17:19;;;;;;;3.40;2.67;;;;;;;21.12;47.20;99727.29;1793561;79;21045;-69
2022/05/17 00:19:46;;;;;;;3.20;2.85;;;;;;;21.10;47.19;99725.36;1793448;80;21013;-68
2022/05/17 00:22:12;;;;;;;3.92;2.90;;;;;;;21.10;47.20;99728.06;1793585;80;21037;-69
2022/05/17 00:24:39;;;;;;;4.87;3.17;;;;;;;21.09;47.18;99719.65;1793708;79;21529;-68
2022/05/17 00:27:06;;;;;;;3.65;3.08;;;;;;;21.08;47.20;99724.77;1793528;79;21175;-67
2022/05/17 00:29:34;;;;;;;3.70;3.40;;;;;;;21.06;47.20;99723.66;1793411;80;21067;-68
2022/05/17 00:32:00;;;;;;;4.58;3.00;;;;;;;21.04;47.20;99729.83;1797445;78;21049;-68
2022/05/17 00:34:27;;;;;;;3.72;3.20;;;;;;;21.04;47.22;99721.72;1825913;78;20983;-68
2022/05/17 00:36:54;;;;;;;4.65;3.72;;;;;;;21.04;47.20;99726.31;1826025;78;21013;-68
2022/05/17 00:39:20;;;;;;;4.03;3.42;;;;;;;21.01;47.24;99724.38;1826017;78;21284;-69
2022/05/17 00:41:47;;;;;;;3.70;3.20;;;;;;;21.01;47.21;99724.89;1826005;78;21038;-68
2022/05/17 00:47:07;;;;;;;3.85;3.22;;;;;;;20.99;47.24;99726.47;1826100;78;21539;-68
2022/05/17 00:49:53;;;;;;;5.20;3.60;;;;;;;20.98;47.22;99720.79;1825035;78;21064;-68
2022/05/17 00:52:28;;;;;;;3.90;3.17;;;;;;;20.97;47.22;99723.19;1826209;78;21857;-68
2022/05/17 00:54:58;;;;;;;3.85;3.33;;;;;;;20.96;47.22;99719.39;1826052;78;21002;-68
2022/05/17 00:57:37;;;;;;;4.47;3.50;;;;;;;20.94;47.24;99716.92;1826172;78;20994;-68
2022/05/17 01:00:12;;;;;;;5.15;3.40;;;;;;;20.93;47.26;99714.45;1826104;78;21013;-68
2022/05/17 01:02:53;;;;;;;3.33;3.02;;;;;;;20.92;47.23;99712.80;1826265;78;21561;-69
2022/05/17 01:05:20;;;;;;;4.72;3.52;;;;;;;20.92;47.25;99715.50;1825228;78;21023;-67
2022/05/17 01:07:54;;;;;;;4.90;3.30;;;;;;;20.90;47.25;99715.76;1825851;78;21118;-68
2022/05/17 01:10:21;;;;;;;3.37;3.08;;;;;;;20.89;47.25;99707.35;1826341;78;20998;-67
2022/05/17 01:14:57;;;;;;;3.85;2.85;;;;;;;20.89;47.25;99706.00;1826094;78;21053;-68
2022/05/17 01:15:16;;;;;;;3.87;3.05;;;;;;;20.89;47.28;99706.54;1823568;78;21540;-67
2022/05/17 01:17:43;;;;;;;4.15;2.92;;;;;;;20.88;47.26;99703.53;1826136;78;21131;-67
2022/05/17 01:20:12;;;;;;;3.12;2.80;;;;;;;20.87;47.27;99705.42;1826207;78;21545;-68
2022/05/17 01:22:39;;;;;;;3.98;3.35;;;;;;;20.86;47.26;99705.66;1825203;78;20997;-68
2022/05/17 01:25:07;;;;;;;3.52;3.20;;;;;;;20.86;47.24;99700.25;1826663;78;21072;-68
2022/05/17 01:27:47;;;;;;;4.87;3.12;;;;;;;20.85;47.25;99696.73;1825972;78;21060;-66
2022/05/17 01:30:18;;;;;;;3.72;3.02;;;;;;;20.85;47.25;99694.03;1826157;78;21138;-67
2022/05/17 01:32:44;;;;;;;3.40;3.10;;;;;;;20.84;47.28;99696.43;1825669;78;21545;-67
2022/05/17 01:35:10;;;;;;;3.08;2.77;;;;;;;20.82;47.25;99698.55;1826317;78;20986;-67
2022/05/17 01:37:37;;;;;;;3.35;3.05;;;;;;;20.83;47.25;99697.50;1826021;78;21065;-68
2022/05/17 01:40:06;;;;;;;4.10;2.95;;;;;;;20.82;47.24;99697.20;1825185;78;21060;-68
2022/05/17 01:42:33;;;;;;;4.65;3.05;;;;;;;20.82;47.24;99697.20;1826330;78;21055;-68
2022/05/17 01:45:00;;;;;;;3.85;3.00;;;;;;;20.81;47.20;99696.92;1826158;78;21006;-68
2022/05/17 01:47:26;;;;;;;3.08;2.75;;;;;;;20.81;47.20;99695.57;1826163;78;21065;-68
2022/05/17 01:49:53;;;;;;;3.70;2.85;;;;;;;20.81;47.22;99703.14;1826150;78;21037;-67
2022/05/17 01:52:19;;;;;;;3.77;3.05;;;;;;;20.80;47.18;99695.27;1826136;78;21060;-69
2022/05/17 01:54:47;;;;;;;3.40;3.10;;;;;;;20.80;47.19;99700.16;1826064;78;21393;-68
2022/05/17 01:57:13;;;;;;;3.35;2.98;;;;;;;20.80;47.15;99703.36;1825162;78;21544;-68
2022/05/17 01:59:40;;;;;;;3.00;2.70;;;;;;;20.78;47.18;99698.23;1826125;78;21013;-68
2022/05/17 02:02:07;;;;;;;3.55;2.95;;;;;;;20.79;47.13;99697.69;1826202;78;21034;-68
2022/05/17 02:04:33;;;;;;;3.30;2.87;;;;;;;20.78;47.14;99700.08;1826242;78;21545;-67
2022/05/17 02:07:00;;;;;;;2.67;2.47;;;;;;;20.77;47.13;99695.22;1826213;78;21195;-67
2022/05/17 02:09:26;;;;;;;3.60;2.50;;;;;;;20.76;47.12;99693.56;1826113;78;20970;-68
2022/05/17 02:11:54;;;;;;;3.08;2.77;;;;;;;20.76;47.13;99696.80;1826247;78;21021;-69
2022/05/17 02:14:20;;;;;;;3.35;2.80;;;;;;;20.76;47.09;99692.75;1824992;78;21454;-68
2022/05/17 02:16:48;;;;;;;3.52;2.90;;;;;;;20.74;47.09;99693.52;1826085;78;21072;-67
2022/05/17 02:19:19;;;;;;;2.83;2.52;;;;;;;20.73;47.10;99686.49;1826143;78;21133;-68
2022/05/17 02:21:44;;;;;;;3.08;2.67;;;;;;;20.68;47.07;99680.44;1825930;78;20986;-68
2022/05/17 02:24:11;;;;;;;3.50;3.08;;;;;;;20.72;47.08;99692.93;1826077;78;20986;-67
2022/05/17 02:26:37;;;;;;;2.87;2.52;;;;;;;20.70;47.07;99691.81;1826113;78;21064;-67
2022/05/17 02:29:03;;;;;;;2.72;2.52;;;;;;;20.70;47.07;99689.65;1819205;78;21023;-67
2022/05/17 02:31:30;;;;;;;3.72;2.37;;;;;;;20.70;47.07;99689.65;1802345;78;22034;-68
2022/05/17 02:33:56;;;;;;;2.60;2.40;;;;;;;20.69;47.06;99685.33;1814662;79;21002;-67
2022/05/17 02:36:22;;;;;;;2.83;2.52;;;;;;;20.68;47.04;99687.18;1814630;78;21523;-68
2022/05/17 02:38:49;;;;;;;2.87;2.42;;;;;;;20.67;47.03;99688.76;1814629;78;20990;-69
2022/05/17 02:41:19;;;;;;;3.12;2.67;;;;;;;20.67;47.05;99686.06;1814690;78;21017;-67
2022/05/17 02:43:46;;;;;;;2.40;2.20;;;;;;;20.65;47.03;99678.22;1814475;79;21223;-67
2022/05/17 02:46:13;;;;;;;3.33;3.02;;;;;;;20.65;47.04;99682.27;1814500;78;21037;-68
2022/05/17 02:48:39;;;;;;;3.58;2.27;;;;;;;20.64;47.00;99683.85;1813603;78;21103;-67
2022/05/17 02:51:15;;;;;;;2.42;2.22;;;;;;;20.63;47.05;99678.99;1814620;79;21009;-68
2022/05/17 02:53:42;;;;;;;2.80;2.50;;;;;;;20.64;47.03;99677.11;1814529;79;20998;-68
2022/05/17 02:56:10;;;;;;;2.98;2.55;;;;;;;20.61;47.03;99672.47;1814575;79;21045;-68
2022/05/17 02:58:37;;;;;;;2.95;2.65;;;;;;;20.61;47.05;99683.27;1814402;79;20971;-67
2022/05/17 03:01:03;;;;;;;2.47;2.25;;;;;;;20.60;47.05;99674.05;1813974;79;21538;-67
2022/05/17 03:03:30;;;;;;;3.05;2.40;;;;;;;20.59;47.09;99681.33;1814532;79;21017;-68
2022/05/17 03:05:57;;;;;;;2.90;2.22;;;;;;;20.60;47.06;99678.09;1787253;78;21073;-68
2022/05/17 03:08:24;;;;;;;2.98;2.45;;;;;;;20.59;47.06;99675.94;1782540;79;21149;-68
2022/05/17 03:10:51;;;;;;;3.37;2.60;;;;;;;20.58;47.07;99658.05;1782291;80;20994;-68
2022/05/17 03:13:17;;;;;;;2.17;1.98;;;;;;;20.57;47.08;99646.98;1782480;79;21081;-68
2022/05/17 03:15:44;;;;;;;2.20;2.00;;;;;;;20.58;47.06;99658.59;1782340;80;21061;-67
2022/05/17 03:18:11;;;;;;;2.20;2.00;;;;;;;20.57;47.09;99671.78;1782819;79;20995;-67
2022/05/17 03:20:38;;;;;;;2.65;2.30;;;;;;;20.57;47.12;99675.32;1782469;79;21190;-68
2022/05/17 03:23:05;;;;;;;2.40;2.20;;;;;;;20.55;47.10;99669.34;1783364;79;21268;-67
2022/05/17 03:25:32;;;;;;;2.10;1.90;;;;;;;20.55;47.10;99666.64;1782350;80;21029;-68
2022/05/17 03:27:59;;;;;;;2.10;1.90;;;;;;;20.56;47.09;99666.11;1782376;79;20999;-66
2022/05/17 03:30:26;;;;;;;2.33;2.12;;;;;;;20.55;47.10;99666.64;1801482;78;21001;-68
2022/05/17 03:32:52;;;;;;;2.70;2.47;;;;;;;20.56;47.12;99670.16;1826098;78;21716;-68
2022/05/17 03:35:21;;;;;;;2.50;2.30;;;;;;;20.56;47.12;99668.80;1825996;78;20968;-68
2022/05/17 03:37:47;;;;;;;2.65;2.30;;;;;;;20.55;47.13;99665.30;1825994;78;21065;-69
2022/05/17 03:40:14;;;;;;;2.98;1.92;;;;;;;20.55;47.13;99669.34;1825033;78;21013;-68
2022/05/17 03:42:40;;;;;;;2.40;2.17;;;;;;;20.54;47.12;99664.98;1826089;78;20986;-68
2022/05/17 03:45:09;;;;;;;2.17;1.98;;;;;;;20.54;47.13;99671.73;1826181;78;21178;-68
2022/05/17 03:47:35;;;;;;;2.70;1.95;;;;;;;20.54;47.13;99666.34;1826315;78;21025;-68
2022/05/17 03:50:03;;;;;;;2.92;2.30;;;;;;;20.54;47.12;99670.92;1807781;78;21021;-67
2022/05/17 03:52:31;;;;;;;2.33;2.12;;;;;;;20.53;47.13;99667.41;1826236;78;21430;-69
2022/05/17 03:54:59;;;;;;;3.02;2.47;;;;;;;20.53;47.11;99664.70;1824838;78;21005;-67
2022/05/17 03:57:27;;;;;;;2.17;1.95;;;;;;;20.52;47.14;99652.26;1826101;78;21823;-68
2022/05/17 03:59:54;;;;;;;3.87;2.40;;;;;;;20.52;47.13;99660.89;1825933;78;21054;-68
2022/05/17 04:02:23;;;;;;;2.30;2.10;;;;;;;20.52;47.13;99664.40;1826394;78;21470;-68
2022/05/17 04:04:54;;;;;;;2.10;1.90;;;;;;;20.52;47.13;99655.50;1825989;78;21045;-67
2022/05/17 04:07:22;;;;;;;2.22;2.02;;;;;;;20.52;47.11;99659.55;1826057;78;21173;-68
2022/05/17 04:09:50;;;;;;;3.02;2.60;;;;;;;20.51;47.10;99654.65;1825967;78;22150;-68
2022/05/17 04:12:17;;;;;;;2.30;2.10;;;;;;;20.51;47.13;99657.34;1824809;78;21025;-68
2022/05/17 04:14:44;;;;;;;2.47;1.90;;;;;;;20.51;47.11;99658.70;1825964;78;21022;-68
2022/05/17 04:17:10;;;;;;;2.98;2.30;;;;;;;20.52;47.10;99648.21;1826094;78;21446;-69
2022/05/17 04:19:39;;;;;;;2.45;2.17;;;;;;;20.51;47.08;99645.20;1826023;78;21025;-68
2022/05/17 04:22:08;;;;;;;2.22;2.02;;;;;;;20.51;47.07;99645.20;1826129;78;21592;-68
2022/05/17 04:24:35;;;;;;;2.60;2.20;;;;;;;20.51;47.07;99638.45;1825877;78;20982;-68
2022/05/17 04:27:01;;;;;;;2.35;2.15;;;;;;;20.52;47.05;99644.70;1826192;78;21542;-68
2022/05/17 04:29:27;;;;;;;2.95;2.67;;;;;;;20.51;47.05;99637.11;1813248;78;21072;-68
2022/05/17 04:31:54;;;;;;;3.00;2.60;;;;;;;20.52;47.03;99644.16;1810102;79;21029;-68
2022/05/17 04:34:20;;;;;;;2.95;2.75;;;;;;;20.52;47.02;99640.11;1814425;79;22130;-68
2022/05/17 04:36:48;;;;;;;2.58;2.37;;;;;;;20.53;47.02;99649.87;1814546;78;20986;-68
2022/05/17 04:39:15;;;;;;;2.80;2.60;;;;;;;20.53;47.02;99652.56;1814690;78;21468;-69
2022/05/17 04:41:43;;;;;;;2.70;2.50;;;;;;;20.54;47.01;99653.38;1814509;78;21291;-68
2022/05/17 04:44:10;;;;;;;2.92;2.72;;;;;;;20.54;47.01;99652.03;1803568;79;21073;-68
2022/05/17 04:46:36;;;;;;;3.75;3.40;;;;;;;20.54;47.01;99651.49;1813539;79;21068;-67
2022/05/17 04:49:03;;;;;;;3.70;3.40;;;;;;;20.54;47.00;99648.80;1814584;79;21033;-69
2022/05/17 04:51:32;;;;;;;4.47;3.25;;;;;;;20.55;47.01;99645.05;1814657;79;21108;-67
2022/05/17 04:53:59;;;;;;;4.00;3.50;;;;;;;20.55;47.01;99636.95;1815202;79;20976;-68
2022/05/17 04:56:25;;;;;;;4.00;3.60;;;;;;;20.57;46.99;99644.79;1814817;78;21534;-68
2022/05/17 04:58:52;;;;;;;3.85;3.55;;;;;;;20.58;46.99;99640.52;1814578;79;21127;-68
2022/05/17 05:01:20;;;;;;;4.15;3.75;;;;;;;20.57;46.99;99640.23;1814687;79;20966;-68
2022/05/17 05:03:47;;;;;;;4.22;3.83;;;;;;;20.59;47.01;99636.80;1813430;78;21010;-68
2022/05/17 05:06:14;;;;;;;4.80;4.30;;;;;;;20.60;47.00;99640.31;1814645;78;20994;-68
2022/05/17 05:08:40;;;;;;;4.20;3.72;;;;;;;20.60;47.00;99644.36;1814901;78;21451;-68
2022/05/17 05:11:07;;;;;;;4.25;3.85;;;;;;;20.61;46.99;99641.44;1814608;79;21183;-68
2022/05/17 05:13:35;;;;;;;4.40;4.00;;;;;;;20.62;47.00;99633.61;1814602;79;21159;-68
2022/05/17 05:16:02;;;;;;;4.45;4.05;;;;;;;20.64;47.01;99632.03;1814618;78;21010;-68
2022/05/17 05:18:28;;;;;;;4.20;3.80;;;;;;;20.65;47.01;99635.55;1814768;78;21482;-68
2022/05/17 05:21:09;;;;;;;4.25;3.80;;;;;;;20.66;47.01;99632.62;1813390;78;21003;-68
2022/05/17 05:23:37;;;;;;;4.80;4.40;;;;;;;20.68;47.00;99645.88;1815025;79;21075;-68
2022/05/17 05:26:05;;;;;;;4.40;4.00;;;;;;;20.69;46.99;99634.05;1814527;78;21061;-68
2022/05/17 05:28:35;;;;;;;4.42;4.03;;;;;;;20.69;47.00;99629.45;1814544;78;21002;-68
2022/05/17 05:31:01;;;;;;;4.60;4.20;;;;;;;20.70;47.01;99631.08;1814627;78;21014;-68
2022/05/17 05:33:29;;;;;;;4.55;4.12;;;;;;;20.72;47.03;99633.55;1814607;79;21043;-68
2022/05/17 05:35:56;;;;;;;4.92;4.53;;;;;;;20.73;47.03;99628.45;1814566;78;21209;-68
2022/05/17 05:38:24;;;;;;;4.97;4.47;;;;;;;20.73;47.03;99627.92;1813674;78;21656;-68
2022/05/17 05:40:51;;;;;;;4.67;4.25;;;;;;;20.76;47.01;99628.77;1814510;79;20970;-68
2022/05/17 05:43:17;;;;;;;5.10;4.60;;;;;;;20.77;47.02;99631.78;1814908;79;21604;-69
2022/05/17 05:45:43;;;;;;;4.28;3.83;;;;;;;20.79;46.99;99635.59;1814542;78;21021;-68
2022/05/17 05:48:11;;;;;;;4.47;4.08;;;;;;;20.80;47.04;99631.31;1814658;78;21098;-69
2022/05/17 05:50:38;;;;;;;4.45;4.05;;;;;;;20.82;47.01;99632.41;1814413;79;21068;-69
2022/05/17 05:53:08;;;;;;;4.80;4.30;;;;;;;20.81;46.98;99628.89;1814610;79;20978;-69
2022/05/17 05:55:35;;;;;;;5.00;4.50;;;;;;;20.86;47.00;99636.30;1813325;79;21034;-68
2022/05/17 05:58:04;;;;;;;4.55;4.15;;;;;;;20.86;47.00;99636.30;1814675;79;21636;-68
2022/05/17 06:00:30;;;;;;;4.33;3.92;;;;;;;20.88;46.96;99635.53;1814549;79;21097;-70
2022/05/17 06:02:57;;;;;;;4.53;4.05;;;;;;;20.89;46.97;99641.20;1813758;79;21062;-69
2022/05/17 06:05:24;;;;;;;4.20;3.72;;;;;;;20.90;46.94;99634.76;1814678;78;21486;-68
2022/05/17 06:07:51;;;;;;;4.47;3.85;;;;;;;20.92;46.92;99633.14;1814570;79;21062;-68
2022/05/17 06:10:18;;;;;;;4.90;4.08;;;;;;;20.92;46.91;99628.59;1814599;79;21057;-69
2022/05/17 06:12:44;;;;;;;5.12;4.30;;;;;;;20.94;46.88;99627.81;1790056;79;21194;-68
2022/05/17 06:15:11;;;;;;;4.62;4.15;;;;;;;20.96;46.85;99637.03;1782525;79;21467;-70
2022/05/17 06:17:38;;;;;;;5.22;4.72;;;;;;;20.96;46.88;99623.00;1782357;80;21065;-68
2022/05/17 06:20:08;;;;;;;4.33;3.92;;;;;;;20.99;46.87;99621.69;1782563;79;20967;-68
2022/05/17 06:22:34;;;;;;;4.58;4.17;;;;;;;20.99;46.86;99626.55;1782428;80;21025;-68
2022/05/17 06:25:01;;;;;;;4.47;4.08;;;;;;;21.01;46.87;99620.91;1782536;80;21056;-68
2022/05/17 06:27:27;;;;;;;4.80;4.28;;;;;;;21.03;46.87;99619.33;1782464;80;21033;-69
2022/05/17 06:29:55;;;;;;;4.62;4.22;;;;;;;21.05;46.86;99615.86;1801977;77;21029;-68
2022/05/17 06:32:21;;;;;;;4.30;3.90;;;;;;;21.07;46.86;99609.69;1826050;78;21083;-68
2022/05/17 06:34:49;;;;;;;4.47;4.08;;;;;;;21.09;46.86;99614.31;1826131;78;21537;-68
2022/05/17 06:37:16;;;;;;;4.08;3.67;;;;;;;21.11;46.90;99610.84;1826178;78;21318;-69
2022/05/17 06:39:42;;;;;;;4.30;3.90;;;;;;;21.12;46.97;99599.80;1826107;78;21518;-67
2022/05/17 06:42:09;;;;;;;4.28;3.87;;;;;;;21.15;46.91;99602.55;1826150;78;21041;-69
2022/05/17 06:44:39;;;;;;;4.00;3.70;;;;;;;21.17;46.93;99600.42;1825995;78;21013;-68
2022/05/17 06:47:06;;;;;;;4.45;4.05;;;;;;;21.19;46.95;99586.17;1825217;78;21013;-67
2022/05/17 06:49:32;;;;;;;4.60;4.00;;;;;;;21.21;47.00;99594.85;1826335;78;21879;-69
2022/05/17 06:52:04;;;;;;;4.03;3.62;;;;;;;21.18;47.04;99591.27;1826105;78;21018;-69
2022/05/17 06:54:31;;;;;;;4.97;4.55;;;;;;;21.23;47.13;99585.97;1826024;78;20986;-68
2022/05/17 06:56:57;;;;;;;3.87;3.55;;;;;;;21.25;47.19;99585.70;1826223;78;21028;-68
2022/05/17 06:59:24;;;;;;;4.22;3.83;;;;;;;21.26;47.19;99588.17;1826251;78;21085;-69
2022/05/17 07:01:50;;;;;;;3.90;3.50;;;;;;;21.28;47.28;99586.05;1825852;78;21227;-69
2022/05/17 07:04:17;;;;;;;4.15;3.72;;;;;;;21.30;47.29;99581.76;1794308;78;21705;-68
2022/05/17 07:06:47;;;;;;;4.05;3.65;;;;;;;21.30;47.33;99581.22;1793475;79;21017;-68
2022/05/17 07:09:15;;;;;;;4.20;3.80;;;;;;;21.32;47.36;99573.69;1793601;79;20990;-68
2022/05/17 07:14:28;;;;;;;3.98;3.58;;;;;;;21.35;47.43;99569.70;1793776;79;21497;-68
2022/05/17 07:16:55;;;;;;;4.15;3.75;;;;;;;21.35;47.38;99573.22;1793449;79;21029;-68
2022/05/17 07:19:22;;;;;;;4.35;3.95;;;;;;;21.37;47.42;99569.73;1794648;78;21521;-69
2022/05/17 07:21:48;;;;;;;4.20;3.80;;;;;;;21.38;47.43;99559.23;1793485;80;20970;-69
2022/05/17 07:24:19;;;;;;;4.50;4.00;;;;;;;21.41;47.51;99560.08;1793561;80;21065;-68
2022/05/17 07:26:45;;;;;;;3.83;3.52;;;;;;;21.43;47.53;99559.03;1793587;79;21171;-68
2022/05/17 07:29:12;;;;;;;4.47;4.08;;;;;;;21.44;47.57;99560.69;1798123;78;21029;-68
2022/05/17 07:31:39;;;;;;;3.92;3.52;;;;;;;21.46;47.54;99559.91;1826029;78;21033;-68
2022/05/17 07:34:06;;;;;;;3.35;3.05;;;;;;;21.48;47.51;99546.97;1826460;78;21071;-69
2022/05/17 07:36:33;;;;;;;3.75;3.45;;;;;;;21.50;47.54;99548.89;1825147;78;21005;-69
2022/05/17 07:38:59;;;;;;;4.15;3.70;;;;;;;21.51;47.58;99563.52;1826117;78;21242;-69
2022/05/17 07:41:26;;;;;;;4.20;3.80;;;;;;;21.54;47.54;99551.42;1826407;78;21090;-69
2022/05/17 07:43:52;;;;;;;3.72;3.42;;;;;;;21.56;47.54;99569.02;1826091;78;20971;-68
2022/05/17 07:46:19;;;;;;;4.05;3.58;;;;;;;21.58;47.56;99552.02;1826123;78;20982;-69
2022/05/17 07:48:45;;;;;;;3.65;3.25;;;;;;;21.61;47.53;99549.35;1826027;78;21021;-68
2022/05/17 07:51:12;;;;;;;3.55;3.12;;;;;;;21.64;47.48;99549.41;1826054;78;21234;-69
2022/05/17 07:53:39;;;;;;;3.75;3.37;;;;;;;21.65;47.43;99542.39;1824851;78;21514;-67
2022/05/17 07:56:07;;;;;;;3.42;3.12;;;;;;;21.68;47.31;99547.86;1826326;78;21060;-69
2022/05/17 07:58:33;;;;;;;3.80;3.47;;;;;;;21.69;47.32;99542.20;1826145;78;21017;-68
2022/05/17 08:01:01;;;;;;;3.52;3.22;;;;;;;21.71;47.36;99533.83;1826179;78;21064;-68
2022/05/17 08:03:27;;;;;;;4.22;3.22;;;;;;;21.72;47.31;99520.07;1825999;78;21138;-67
2022/05/17 08:05:54;;;;;;;3.90;3.52;;;;;;;21.75;47.29;99542.57;1825834;78;21060;-68
2022/05/17 08:08:22;;;;;;;3.80;3.40;;;;;;;21.75;47.27;99539.86;1825962;78;21061;-68
2022/05/17 08:10:49;;;;;;;3.77;3.45;;;;;;;21.78;47.22;99552.88;1824836;78;21002;-69
2022/05/17 08:13:17;;;;;;;3.40;3.10;;;;;;;21.79;47.24;99555.88;1826036;78;21475;-69
2022/05/17 08:15:44;;;;;;;3.55;3.25;;;;;;;21.83;47.18;99548.09;1825949;78;21135;-69
2022/05/17 08:18:10;;;;;;;3.22;2.92;;;;;;;21.84;47.18;99537.55;1826333;78;21037;-69
2022/05/17 08:20:37;;;;;;;4.42;4.03;;;;;;;21.87;47.15;99537.61;1825925;78;21037;-69
2022/05/17 08:23:04;;;;;;;3.35;2.98;;;;;;;21.89;47.17;99520.60;1826004;78;21061;-69
2022/05/17 08:28:16;;;;;;;3.33;2.98;;;;;;;21.94;47.06;99514.73;1824901;78;21104;-69
2022/05/17 08:30:44;;;;;;;3.58;3.27;;;;;;;21.96;47.10;99514.47;1820742;78;21549;-69
2022/05/17 08:33:15;;;;;;;3.65;3.30;;;;;;;21.97;47.05;99516.92;1814470;79;21034;-68
2022/05/17 08:35:58;;;;;;;3.42;3.12;;;;;;;21.99;46.98;99508.03;1814534;78;21027;-69
2022/05/17 08:38:40;;;;;;;3.05;2.80;;;;;;;22.02;47.05;99502.68;1814275;77;21029;-69
2022/05/17 08:41:41;;;;;;;3.47;3.17;;;;;;;22.03;47.01;99500.78;1804724;77;21022;-69
2022/05/17 08:45:50;;;;;;;3.08;2.77;;;;;;;22.09;46.97;99491.13;1847046;76;22627;-68
2022/05/17 08:48:17;;;;;;;3.35;3.05;;;;;;;22.07;46.96;99489.20;1793564;79;21053;-68
2022/05/17 08:50:43;;;;;;;3.30;3.00;;;;;;;22.09;46.91;99492.47;1794056;80;21112;-69
2022/05/17 08:53:13;;;;;;;2.83;2.60;;;;;;;22.10;46.92;99492.77;1794056;79;21505;-68
2022/05/17 08:55:41;;;;;;;3.60;3.10;;;;;;;22.12;46.84;99483.06;1793895;80;21009;-67
2022/05/17 08:58:21;;;;;;;3.47;3.17;;;;;;;22.14;46.86;99483.63;1794108;79;20957;-69
2022/05/17 09:00:54;;;;;;;4.22;3.52;;;;;;;22.16;46.88;99481.48;1793952;80;21072;-69
2022/05/17 09:04:01;;;;;;;3.50;3.20;;;;;;;22.18;46.87;99483.41;1803024;78;21076;-68
2022/05/17 09:06:38;;;;;;;3.55;3.25;;;;;;;22.19;46.79;99476.40;1826396;78;20981;-68
2022/05/17 09:09:22;;;;;;;3.35;3.05;;;;;;;22.22;46.77;99460.73;1826673;78;20998;-68
2022/05/17 09:12:12;;;;;;;4.90;3.83;;;;;;;22.26;46.75;99479.48;1825485;78;20985;-69
2022/05/17 09:14:41;;;;;;;4.28;3.87;;;;;;;22.27;46.69;99472.47;1825194;78;21536;-69
2022/05/17 09:17:15;;;;;;;3.87;3.37;;;;;;;22.30;46.68;99467.08;1826434;78;21293;-69
2022/05/17 09:19:42;;;;;;;3.42;3.12;;;;;;;22.31;46.71;99471.41;1824807;78;21017;-69
2022/05/17 09:22:10;;;;;;;3.98;3.58;;;;;;;22.34;46.58;99477.68;1826396;78;21009;-68
2022/05/17 09:24:41;;;;;;;3.83;3.52;;;;;;;22.37;46.49;99460.41;1826359;78;20951;-68
2022/05/17 09:27:12;;;;;;;3.65;3.35;;;;;;;22.41;46.40;99455.31;1826503;78;21478;-69
2022/05/17 09:29:44;;;;;;;4.00;3.60;;;;;;;22.43;46.43;99449.66;1825034;78;21130;-68
2022/05/17 09:32:12;;;;;;;3.80;3.50;;;;;;;22.45;46.35;99455.08;1826691;78;21501;-68
2022/05/17 09:34:43;;;;;;;4.12;3.72;;;;;;;22.48;46.34;99455.10;1826413;78;21629;-68
2022/05/17 09:37:18;;;;;;;4.10;3.72;;;;;;;22.51;46.31;99439.17;1825336;78;21052;-70
2022/05/17 09:39:49;;;;;;;3.25;2.95;;;;;;;22.55;46.35;99435.43;1826470;78;20982;-69
2022/05/17 09:42:30;;;;;;;3.77;3.47;;;;;;;22.60;46.37;99436.01;1826776;78;21083;-70
2022/05/17 09:45:02;;;;;;;3.52;3.20;;;;;;;22.64;46.42;99435.77;1822972;78;21029;-68
2022/05/17 09:47:56;;;;;;;3.85;3.55;;;;;;;22.67;46.41;99442.05;1827213;78;21033;-69
2022/05/17 09:53:17;;;;;;;3.62;3.33;;;;;;;22.73;46.36;99440.48;1766559;78;21005;-67
2022/05/17 09:55:56;;;;;;;3.80;3.47;;;;;;;22.75;46.36;99432.10;1826682;78;21305;-69
2022/05/17 09:58:35;;;;;;;4.30;3.90;;;;;;;22.78;46.33;99423.48;1826571;78;20994;-69
2022/05/17 10:01:28;;;;;;;3.87;3.58;;;;;;;22.82;46.32;99429.20;1826242;78;21025;-69
2022/05/17 10:04:16;;;;;;;4.00;3.60;;;;;;;22.84;46.33;99422.45;1824853;78;21049;-69
2022/05/17 10:06:46;;;;;;;4.85;3.60;;;;;;;22.87;46.40;99419.24;1826254;78;21114;-69
2022/05/17 10:09:28;;;;;;;4.12;3.72;;;;;;;22.91;46.56;99411.42;1822461;78;22177;-68
2022/05/17 10:12:09;;;;;;;3.77;3.37;;;;;;;22.95;46.55;99399.80;1791929;79;21075;-68
2022/05/17 10:14:49;;;;;;;3.85;3.55;;;;;;;23.00;46.59;99396.31;1793850;79;21044;-68
2022/05/17 10:17:49;;;;;;;4.20;3.60;;;;;;;23.03;46.48;99398.55;1793803;79;21529;-69
2022/05/17 10:20:23;;;;;;;3.55;3.25;;;;;;;23.07;46.38;99413.20;1793818;79;21526;-69
2022/05/17 10:23:19;;;;;;;3.85;3.55;;;;;;;23.12;46.34;99397.00;1793597;80;21146;-68
2022/05/17 10:26:02;;;;;;;3.72;3.40;;;;;;;23.15;46.47;99391.05;1791500;79;21041;-69
2022/05/17 10:28:52;;;;;;;3.75;3.45;;;;;;;23.22;46.50;99380.00;1793814;80;20990;-70
2022/05/17 10:31:43;;;;;;;3.60;3.30;;;;;;;23.28;46.52;99345.63;1780597;80;21009;-68
2022/05/17 10:34:46;;;;;;;3.90;3.55;;;;;;;23.34;46.47;99372.48;1793783;80;21077;-68
2022/05/17 10:37:18;;;;;;;3.77;3.47;;;;;;;23.40;46.32;99372.53;1794013;80;21126;-69
2022/05/17 10:40:07;;;;;;;3.90;3.60;;;;;;;23.44;46.29;99383.93;1793825;80;20990;-69
2022/05/17 10:42:34;;;;;;;4.25;3.85;;;;;;;23.48;46.33;99368.77;1793653;80;21017;-68
2022/05/17 10:45:00;;;;;;;4.17;3.77;;;;;;;23.53;46.31;99368.81;1794568;78;21003;-68
2022/05/17 10:47:47;;;;;;;3.80;3.50;;;;;;;23.56;46.22;99366.10;1793775;79;21052;-68
2022/05/17 10:50:35;;;;;;;4.08;3.65;;;;;;;23.60;46.17;99358.27;1793978;80;22035;-68
2022/05/17 10:53:25;;;;;;;4.30;3.90;;;;;;;23.65;46.14;99348.81;1793627;80;21026;-69
2022/05/17 10:56:40;;;;;;;4.47;4.00;;;;;;;23.70;46.15;99351.01;1793781;79;21044;-69
2022/05/17 10:59:25;;;;;;;4.35;3.95;;;;;;;23.74;46.10;99346.68;1793681;80;20997;-68
2022/05/17 11:02:18;;;;;;;4.58;4.17;;;;;;;23.79;46.03;99352.69;1794697;78;21032;-68
2022/05/17 11:05:09;;;;;;;4.08;3.70;;;;;;;23.82;45.99;99358.14;1793838;79;21137;-68
2022/05/17 11:07:59;;;;;;;4.53;4.12;;;;;;;23.85;45.90;99358.41;1793489;80;21060;-69
2022/05/17 11:11:06;;;;;;;4.47;4.08;;;;;;;23.87;45.79;99352.17;1793633;80;21069;-69
2022/05/17 11:13:46;;;;;;;4.00;3.70;;;;;;;23.90;45.74;99345.42;1793667;79;21018;-69
2022/05/17 11:16:38;;;;;;;4.40;4.00;;;;;;;23.95;45.78;99344.06;1793669;79;21002;-69
2022/05/17 11:19:45;;;;;;;3.87;3.47;;;;;;;23.99;45.75;99346.55;1794661;78;21240;-68
2022/05/17 11:22:25;;;;;;;4.37;3.98;;;;;;;24.06;45.72;99347.09;1793262;79;21583;-69
2022/05/17 11:25:22;;;;;;;4.20;3.85;;;;;;;24.13;45.75;99349.02;1793178;80;21021;-69
2022/05/17 11:28:33;;;;;;;4.25;3.87;;;;;;;24.23;45.74;99347.42;1793503;79;20982;-68
2022/05/17 11:31:10;;;;;;;4.22;3.72;;;;;;;24.32;45.73;99335.77;1822173;78;20946;-69
2022/05/17 11:33:39;;;;;;;4.55;4.15;;;;;;;24.38;45.70;99328.45;1826093;78;21151;-69
2022/05/17 11:36:34;;;;;;;3.47;3.17;;;;;;;24.46;45.62;99327.11;1824994;78;21021;-69
2022/05/17 11:39:01;;;;;;;4.12;3.77;;;;;;;24.50;45.64;99333.07;1826403;78;20978;-71
2022/05/17 11:41:39;;;;;;;4.12;3.72;;;;;;;24.58;45.58;99328.23;1826040;78;21018;-69
2022/05/17 11:44:13;;;;;;;4.42;4.03;;;;;;;24.64;45.54;99326.59;1825932;78;21079;-67
2022/05/17 11:46:46;;;;;;;4.35;3.95;;;;;;;24.72;45.52;99323.88;1826030;78;21552;-68
2022/05/17 11:49:26;;;;;;;3.70;3.40;;;;;;;24.80;45.54;99312.48;1826680;78;21025;-69
2022/05/17 11:52:08;;;;;;;4.58;3.87;;;;;;;24.88;45.54;99310.58;1824905;78;21526;-69
2022/05/17 11:54:44;;;;;;;4.10;3.70;;;;;;;24.97;45.46;99295.88;1826015;78;21462;-69
2022/05/17 11:57:20;;;;;;;3.95;3.65;;;;;;;25.04;45.43;99296.42;1826116;78;21032;-69
2022/05/17 12:00:02;;;;;;;4.22;3.37;;;;;;;25.12;45.42;99301.84;1826081;78;21125;-68
2022/05/17 12:02:45;;;;;;;4.40;4.00;;;;;;;25.20;45.39;99283.60;1824624;78;21001;-69
2022/05/17 12:05:35;;;;;;;4.50;4.10;;;;;;;25.26;45.42;99300.19;1826088;78;21021;-68